sensor_id;sensor_type;location;lat;lon;timestamp;temperature;humidity
33067;DHT22;19428;49.024;8.366;2024-01-07T00:01:49;5.20;99.90
33067;DHT22;19428;49.024;8.366;2024-01-07T00:04:15;5.10;99.90
33067;DHT22;19428;49.024;8.366;2024-01-07T00:06:41;5.20;99.90
33067;DHT22;19428;49.024;8.366;2024-01-07T00:09:08;5.20;99.90
33067;DHT22;19428;49.024;8.366;2024-01-07T00:11:34;5.10;99.90
33067;DHT22;19428;49.024;8.366;2024-01-07T00:14:06;5.20;99.90
33067;DHT22;19428;49.024;8.366;2024-01-07T00:16:37;5.20;99.90
33067;DHT22;19428;49.024;8.366;2024-01-07T00:22:30;5.10;99.90
33067;DHT22;19428;49.024;8.366;2024-01-07T00:25:25;5.10;99.90
33067;DHT22;19428;49.024;8.366;2024-01-07T00:28:04;5.10;99.90
33067;DHT22;19428;49.024;8.366;2024-01-07T00:30:30;5.10;99.90
33067;DHT22;19428;49.024;8.366;2024-01-07T00:32:56;5.00;99.90
33067;DHT22;19428;49.024;8.366;2024-01-07T00:35:31;5.00;99.90
33067;DHT22;19428;49.024;8.366;2024-01-07T00:38:00;5.00;99.90
33067;DHT22;19428;49.024;8.366;2024-01-07T00:40:30;5.00;99.90
33067;DHT22;19428;49.024;8.366;2024-01-07T00:43:07;5.00;99.90
33067;DHT22;19428;49.024;8.366;2024-01-07T00:45:42;5.10;99.90
33067;DHT22;19428;49.024;8.366;2024-01-07T00:52:39;5.10;99.90
33067;DHT22;19428;49.024;8.366;2024-01-07T00:56:07;5.00;99.90
33067;DHT22;19428;49.024;8.366;2024-01-07T01:02:24;4.90;99.90
33067;DHT22;19428;49.024;8.366;2024-01-07T01:05:12;5.00;99.90
33067;DHT22;19428;49.024;8.366;2024-01-07T01:10:54;4.90;99.90
33067;DHT22;19428;49.024;8.366;2024-01-07T01:20:14;4.90;99.90
33067;DHT22;19428;49.024;8.366;2024-01-07T01:22:53;4.90;99.90
33067;DHT22;19428;49.024;8.366;2024-01-07T01:25:34;4.90;99.90
33067;DHT22;19428;49.024;8.366;2024-01-07T01:28:10;4.90;99.90
33067;DHT22;19428;49.024;8.366;2024-01-07T01:31:06;5.00;99.90
33067;DHT22;19428;49.024;8.366;2024-01-07T01:33:39;4.80;99.90
33067;DHT22;19428;49.024;8.366;2024-01-07T01:36:15;4.90;99.90
33067;DHT22;19428;49.024;8.366;2024-01-07T01:38:43;4.90;99.90
33067;DHT22;19428;49.024;8.366;2024-01-07T01:41:20;4.80;99.90
33067;DHT22;19428;49.024;8.366;2024-01-07T01:44:05;4.80;99.90
33067;DHT22;19428;49.024;8.366;2024-01-07T01:49:56;4.90;99.90
33067;DHT22;19428;49.024;8.366;2024-01-07T01:52:22;4.80;99.90
33067;DHT22;19428;49.024;8.366;2024-01-07T01:54:55;4.90;99.90
33067;DHT22;19428;49.024;8.366;2024-01-07T01:57:28;4.80;99.90
33067;DHT22;19428;49.024;8.366;2024-01-07T02:00:06;4.90;99.90
33067;DHT22;19428;49.024;8.366;2024-01-07T02:02:45;4.90;99.90
33067;DHT22;19428;49.024;8.366;2024-01-07T02:12:36;4.90;99.90
33067;DHT22;19428;49.024;8.366;2024-01-07T02:18:16;4.80;99.90
33067;DHT22;19428;49.024;8.366;2024-01-07T02:28:02;4.80;99.90
33067;DHT22;19428;49.024;8.366;2024-01-07T02:34:50;4.90;99.90
33067;DHT22;19428;49.024;8.366;2024-01-07T02:37:44;4.80;99.90
33067;DHT22;19428;49.024;8.366;2024-01-07T02:54:49;4.80;99.90
33067;DHT22;19428;49.024;8.366;2024-01-07T03:00:50;4.80;99.90
33067;DHT22;19428;49.024;8.366;2024-01-07T03:03:55;4.80;99.90
33067;DHT22;19428;49.024;8.366;2024-01-07T03:20:25;4.80;99.90
33067;DHT22;19428;49.024;8.366;2024-01-07T03:22:51;4.80;99.90
33067;DHT22;19428;49.024;8.366;2024-01-07T03:25:16;4.80;99.90
33067;DHT22;19428;49.024;8.366;2024-01-07T03:27:42;4.80;99.90
33067;DHT22;19428;49.024;8.366;2024-01-07T03:30:07;4.80;99.90
33067;DHT22;19428;49.024;8.366;2024-01-07T03:32:35;4.80;99.90
33067;DHT22;19428;49.024;8.366;2024-01-07T03:35:02;4.80;99.90
33067;DHT22;19428;49.024;8.366;2024-01-07T03:37:28;4.80;99.90
33067;DHT22;19428;49.024;8.366;2024-01-07T03:39:53;4.80;99.90
33067;DHT22;19428;49.024;8.366;2024-01-07T03:42:19;4.90;99.90
33067;DHT22;19428;49.024;8.366;2024-01-07T03:44:45;4.80;99.90
33067;DHT22;19428;49.024;8.366;2024-01-07T03:47:10;4.80;99.90
33067;DHT22;19428;49.024;8.366;2024-01-07T03:49:36;4.90;99.90
33067;DHT22;19428;49.024;8.366;2024-01-07T03:52:04;4.90;99.90
33067;DHT22;19428;49.024;8.366;2024-01-07T03:54:29;4.80;99.90
33067;DHT22;19428;49.024;8.366;2024-01-07T03:56:55;4.80;99.90
33067;DHT22;19428;49.024;8.366;2024-01-07T03:59:20;4.80;99.90
33067;DHT22;19428;49.024;8.366;2024-01-07T04:01:48;4.80;99.90
33067;DHT22;19428;49.024;8.366;2024-01-07T04:04:14;4.80;99.90
33067;DHT22;19428;49.024;8.366;2024-01-07T04:06:39;4.80;99.90
33067;DHT22;19428;49.024;8.366;2024-01-07T04:09:05;4.80;99.90
33067;DHT22;19428;49.024;8.366;2024-01-07T04:11:30;4.90;99.90
33067;DHT22;19428;49.024;8.366;2024-01-07T04:13:57;4.90;99.90
33067;DHT22;19428;49.024;8.366;2024-01-07T04:16:23;4.90;99.90
33067;DHT22;19428;49.024;8.366;2024-01-07T04:18:49;4.80;99.90
33067;DHT22;19428;49.024;8.366;2024-01-07T04:21:14;4.80;99.90
33067;DHT22;19428;49.024;8.366;2024-01-07T04:23:42;4.80;99.90
33067;DHT22;19428;49.024;8.366;2024-01-07T04:26:09;4.80;99.90
33067;DHT22;19428;49.024;8.366;2024-01-07T04:28:34;4.80;99.90
33067;DHT22;19428;49.024;8.366;2024-01-07T04:31:00;4.80;99.90
33067;DHT22;19428;49.024;8.366;2024-01-07T04:33:26;4.90;99.90
33067;DHT22;19428;49.024;8.366;2024-01-07T04:35:52;4.80;99.90
33067;DHT22;19428;49.024;8.366;2024-01-07T04:38:18;4.80;99.90
33067;DHT22;19428;49.024;8.366;2024-01-07T04:40:43;4.80;99.90
33067;DHT22;19428;49.024;8.366;2024-01-07T04:43:09;4.80;99.90
33067;DHT22;19428;49.024;8.366;2024-01-07T04:45:34;4.80;99.90
33067;DHT22;19428;49.024;8.366;2024-01-07T04:48:00;4.80;99.90
33067;DHT22;19428;49.024;8.366;2024-01-07T04:50:26;4.80;99.90
33067;DHT22;19428;49.024;8.366;2024-01-07T04:52:51;4.80;99.90
33067;DHT22;19428;49.024;8.366;2024-01-07T04:55:18;4.70;99.90
33067;DHT22;19428;49.024;8.366;2024-01-07T04:57:44;4.70;99.90
33067;DHT22;19428;49.024;8.366;2024-01-07T05:00:10;4.80;99.90
33067;DHT22;19428;49.024;8.366;2024-01-07T05:02:36;4.70;99.90
33067;DHT22;19428;49.024;8.366;2024-01-07T05:05:01;4.70;99.90
33067;DHT22;19428;49.024;8.366;2024-01-07T05:07:27;4.70;99.90
33067;DHT22;19428;49.024;8.366;2024-01-07T05:09:52;4.70;99.90
33067;DHT22;19428;49.024;8.366;2024-01-07T05:12:18;4.80;99.90
33067;DHT22;19428;49.024;8.366;2024-01-07T05:14:44;4.80;99.90
33067;DHT22;19428;49.024;8.366;2024-01-07T05:17:11;4.70;99.90
33067;DHT22;19428;49.024;8.366;2024-01-07T05:19:40;4.70;99.90
33067;DHT22;19428;49.024;8.366;2024-01-07T05:22:06;4.70;99.90
33067;DHT22;19428;49.024;8.366;2024-01-07T05:24:31;4.80;99.90
33067;DHT22;19428;49.024;8.366;2024-01-07T05:26:57;4.80;99.90
33067;DHT22;19428;49.024;8.366;2024-01-07T05:29:23;4.70;99.90
33067;DHT22;19428;49.024;8.366;2024-01-07T05:31:51;4.80;99.90
33067;DHT22;19428;49.024;8.366;2024-01-07T05:34:16;4.70;99.90
33067;DHT22;19428;49.024;8.366;2024-01-07T05:36:42;4.80;99.90
33067;DHT22;19428;49.024;8.366;2024-01-07T05:39:07;4.70;99.90
33067;DHT22;19428;49.024;8.366;2024-01-07T05:41:33;4.80;99.90
33067;DHT22;19428;49.024;8.366;2024-01-07T05:44:01;4.80;99.90
33067;DHT22;19428;49.024;8.366;2024-01-07T05:46:27;4.80;99.90
33067;DHT22;19428;49.024;8.366;2024-01-07T05:48:53;4.80;99.90
33067;DHT22;19428;49.024;8.366;2024-01-07T05:51:18;4.80;99.90
33067;DHT22;19428;49.024;8.366;2024-01-07T05:53:45;4.80;99.90
33067;DHT22;19428;49.024;8.366;2024-01-07T05:56:11;4.80;99.90
33067;DHT22;19428;49.024;8.366;2024-01-07T05:58:37;4.80;99.90
33067;DHT22;19428;49.024;8.366;2024-01-07T06:01:03;4.80;99.90
33067;DHT22;19428;49.024;8.366;2024-01-07T06:03:28;4.80;99.90
33067;DHT22;19428;49.024;8.366;2024-01-07T06:05:54;4.80;99.90
33067;DHT22;19428;49.024;8.366;2024-01-07T06:08:19;4.80;99.90
33067;DHT22;19428;49.024;8.366;2024-01-07T06:10:45;4.80;99.90
33067;DHT22;19428;49.024;8.366;2024-01-07T06:13:11;4.80;99.90
33067;DHT22;19428;49.024;8.366;2024-01-07T06:15:36;4.80;99.90
33067;DHT22;19428;49.024;8.366;2024-01-07T06:18:02;4.80;99.90
33067;DHT22;19428;49.024;8.366;2024-01-07T06:20:27;4.80;99.90
33067;DHT22;19428;49.024;8.366;2024-01-07T06:22:53;4.80;99.90
33067;DHT22;19428;49.024;8.366;2024-01-07T06:25:19;4.80;99.90
33067;DHT22;19428;49.024;8.366;2024-01-07T06:27:45;4.80;99.90
33067;DHT22;19428;49.024;8.366;2024-01-07T06:30:14;4.80;99.90
33067;DHT22;19428;49.024;8.366;2024-01-07T06:32:42;4.80;99.90
33067;DHT22;19428;49.024;8.366;2024-01-07T06:35:08;4.80;99.90
33067;DHT22;19428;49.024;8.366;2024-01-07T06:37:34;4.80;99.90
33067;DHT22;19428;49.024;8.366;2024-01-07T06:40:00;4.90;99.90
33067;DHT22;19428;49.024;8.366;2024-01-07T06:42:25;4.80;99.90
33067;DHT22;19428;49.024;8.366;2024-01-07T06:44:52;4.80;99.90
33067;DHT22;19428;49.024;8.366;2024-01-07T06:47:18;4.80;99.90
33067;DHT22;19428;49.024;8.366;2024-01-07T06:49:44;4.80;99.90
33067;DHT22;19428;49.024;8.366;2024-01-07T06:52:10;4.90;99.90
33067;DHT22;19428;49.024;8.366;2024-01-07T06:54:36;4.80;99.90
33067;DHT22;19428;49.024;8.366;2024-01-07T06:57:04;4.80;99.90
33067;DHT22;19428;49.024;8.366;2024-01-07T06:59:30;4.80;99.90
33067;DHT22;19428;49.024;8.366;2024-01-07T07:01:55;4.90;99.90
33067;DHT22;19428;49.024;8.366;2024-01-07T07:04:22;4.80;99.90
33067;DHT22;19428;49.024;8.366;2024-01-07T07:06:48;4.80;99.90
33067;DHT22;19428;49.024;8.366;2024-01-07T07:09:13;4.80;99.90
33067;DHT22;19428;49.024;8.366;2024-01-07T07:11:40;4.80;99.90
33067;DHT22;19428;49.024;8.366;2024-01-07T07:14:06;4.80;99.90
33067;DHT22;19428;49.024;8.366;2024-01-07T07:16:32;4.80;99.90
33067;DHT22;19428;49.024;8.366;2024-01-07T07:18:57;4.90;99.90
33067;DHT22;19428;49.024;8.366;2024-01-07T07:21:23;4.90;99.90
33067;DHT22;19428;49.024;8.366;2024-01-07T07:23:48;4.80;99.90
33067;DHT22;19428;49.024;8.366;2024-01-07T07:26:14;4.90;99.90
33067;DHT22;19428;49.024;8.366;2024-01-07T07:28:40;4.90;99.90
33067;DHT22;19428;49.024;8.366;2024-01-07T07:31:05;4.90;99.90
33067;DHT22;19428;49.024;8.366;2024-01-07T07:33:33;4.90;99.90
33067;DHT22;19428;49.024;8.366;2024-01-07T07:36:02;4.90;99.90
33067;DHT22;19428;49.024;8.366;2024-01-07T07:38:27;4.90;99.90
33067;DHT22;19428;49.024;8.366;2024-01-07T07:40:53;5.00;99.90
33067;DHT22;19428;49.024;8.366;2024-01-07T07:43:19;5.00;99.90
33067;DHT22;19428;49.024;8.366;2024-01-07T07:45:48;5.00;99.90
33067;DHT22;19428;49.024;8.366;2024-01-07T07:48:14;5.00;99.90
33067;DHT22;19428;49.024;8.366;2024-01-07T07:50:39;4.90;99.90
33067;DHT22;19428;49.024;8.366;2024-01-07T07:53:08;5.00;99.90
33067;DHT22;19428;49.024;8.366;2024-01-07T07:55:34;5.00;99.90
33067;DHT22;19428;49.024;8.366;2024-01-07T07:57:59;5.00;99.90
33067;DHT22;19428;49.024;8.366;2024-01-07T08:00:25;5.00;99.90
33067;DHT22;19428;49.024;8.366;2024-01-07T08:02:50;5.00;99.90
33067;DHT22;19428;49.024;8.366;2024-01-07T08:05:17;5.00;99.90
33067;DHT22;19428;49.024;8.366;2024-01-07T08:07:42;5.00;99.90
33067;DHT22;19428;49.024;8.366;2024-01-07T08:10:08;5.00;99.90
33067;DHT22;19428;49.024;8.366;2024-01-07T08:12:34;5.00;99.90
33067;DHT22;19428;49.024;8.366;2024-01-07T08:15:04;5.10;99.90
33067;DHT22;19428;49.024;8.366;2024-01-07T08:17:30;5.10;99.90
33067;DHT22;19428;49.024;8.366;2024-01-07T08:19:56;5.10;99.90
33067;DHT22;19428;49.024;8.366;2024-01-07T08:22:21;5.10;99.90
33067;DHT22;19428;49.024;8.366;2024-01-07T08:24:47;5.10;99.90
33067;DHT22;19428;49.024;8.366;2024-01-07T08:27:13;5.10;99.90
33067;DHT22;19428;49.024;8.366;2024-01-07T08:29:39;5.10;99.90
33067;DHT22;19428;49.024;8.366;2024-01-07T08:32:04;5.10;99.90
33067;DHT22;19428;49.024;8.366;2024-01-07T08:34:30;5.20;99.90
33067;DHT22;19428;49.024;8.366;2024-01-07T08:36:56;5.20;99.90
33067;DHT22;19428;49.024;8.366;2024-01-07T08:39:21;5.20;99.90
33067;DHT22;19428;49.024;8.366;2024-01-07T08:41:47;5.20;99.90
33067;DHT22;19428;49.024;8.366;2024-01-07T08:44:17;5.20;99.90
33067;DHT22;19428;49.024;8.366;2024-01-07T08:46:45;5.20;99.90
33067;DHT22;19428;49.024;8.366;2024-01-07T08:49:16;5.20;99.90
33067;DHT22;19428;49.024;8.366;2024-01-07T08:51:47;5.30;99.90
33067;DHT22;19428;49.024;8.366;2024-01-07T08:54:12;5.30;99.90
33067;DHT22;19428;49.024;8.366;2024-01-07T08:56:38;5.30;99.90
33067;DHT22;19428;49.024;8.366;2024-01-07T08:59:05;5.30;99.90
33067;DHT22;19428;49.024;8.366;2024-01-07T09:01:38;5.40;99.90
33067;DHT22;19428;49.024;8.366;2024-01-07T09:04:03;5.40;99.90
33067;DHT22;19428;49.024;8.366;2024-01-07T09:06:31;5.40;99.90
33067;DHT22;19428;49.024;8.366;2024-01-07T09:08:57;5.50;99.90
33067;DHT22;19428;49.024;8.366;2024-01-07T09:11:32;5.40;99.90
33067;DHT22;19428;49.024;8.366;2024-01-07T09:14:00;5.40;99.90
33067;DHT22;19428;49.024;8.366;2024-01-07T09:16:25;5.40;99.90
33067;DHT22;19428;49.024;8.366;2024-01-07T09:18:52;5.40;99.90
33067;DHT22;19428;49.024;8.366;2024-01-07T09:21:17;5.50;99.90
33067;DHT22;19428;49.024;8.366;2024-01-07T09:23:44;5.50;99.90
33067;DHT22;19428;49.024;8.366;2024-01-07T09:26:09;5.50;99.90
33067;DHT22;19428;49.024;8.366;2024-01-07T09:28:35;5.50;99.90
33067;DHT22;19428;49.024;8.366;2024-01-07T09:31:01;5.50;99.90
33067;DHT22;19428;49.024;8.366;2024-01-07T09:33:27;5.50;99.90
33067;DHT22;19428;49.024;8.366;2024-01-07T09:35:52;5.40;99.90
33067;DHT22;19428;49.024;8.366;2024-01-07T09:38:19;5.50;99.90
33067;DHT22;19428;49.024;8.366;2024-01-07T09:40:45;5.50;99.90
33067;DHT22;19428;49.024;8.366;2024-01-07T09:43:11;5.40;99.90
33067;DHT22;19428;49.024;8.366;2024-01-07T09:45:38;5.50;99.90
33067;DHT22;19428;49.024;8.366;2024-01-07T09:48:05;5.50;99.90
33067;DHT22;19428;49.024;8.366;2024-01-07T09:50:32;5.60;99.90
33067;DHT22;19428;49.024;8.366;2024-01-07T09:52:58;5.60;99.90
33067;DHT22;19428;49.024;8.366;2024-01-07T09:55:38;5.60;99.90
33067;DHT22;19428;49.024;8.366;2024-01-07T09:58:05;5.60;99.90
33067;DHT22;19428;49.024;8.366;2024-01-07T10:00:32;5.70;99.90
33067;DHT22;19428;49.024;8.366;2024-01-07T10:02:58;5.80;99.90
33067;DHT22;19428;49.024;8.366;2024-01-07T10:05:37;5.70;99.90
33067;DHT22;19428;49.024;8.366;2024-01-07T10:08:19;5.80;99.90
33067;DHT22;19428;49.024;8.366;2024-01-07T10:10:45;5.90;99.90
33067;DHT22;19428;49.024;8.366;2024-01-07T10:13:11;5.80;99.90
33067;DHT22;19428;49.024;8.366;2024-01-07T10:15:36;5.90;99.90
33067;DHT22;19428;49.024;8.366;2024-01-07T10:18:06;5.90;99.90
33067;DHT22;19428;49.024;8.366;2024-01-07T10:20:33;5.70;99.90
33067;DHT22;19428;49.024;8.366;2024-01-07T10:23:02;5.80;99.90
33067;DHT22;19428;49.024;8.366;2024-01-07T10:25:30;5.80;99.90
33067;DHT22;19428;49.024;8.366;2024-01-07T10:28:00;5.80;99.90
33067;DHT22;19428;49.024;8.366;2024-01-07T10:30:27;5.90;99.90
33067;DHT22;19428;49.024;8.366;2024-01-07T10:32:58;5.80;99.90
33067;DHT22;19428;49.024;8.366;2024-01-07T10:35:28;5.80;99.90
33067;DHT22;19428;49.024;8.366;2024-01-07T10:37:54;5.90;99.90
33067;DHT22;19428;49.024;8.366;2024-01-07T10:40:20;5.90;99.90
33067;DHT22;19428;49.024;8.366;2024-01-07T10:42:46;5.90;99.90
33067;DHT22;19428;49.024;8.366;2024-01-07T10:45:13;5.90;99.90
33067;DHT22;19428;49.024;8.366;2024-01-07T10:47:40;5.70;99.90
33067;DHT22;19428;49.024;8.366;2024-01-07T10:50:08;5.60;99.90
33067;DHT22;19428;49.024;8.366;2024-01-07T10:52:39;5.60;99.90
33067;DHT22;19428;49.024;8.366;2024-01-07T10:55:09;5.50;99.90
33067;DHT22;19428;49.024;8.366;2024-01-07T10:57:44;5.50;99.90
33067;DHT22;19428;49.024;8.366;2024-01-07T11:00:13;5.50;99.90
33067;DHT22;19428;49.024;8.366;2024-01-07T11:02:55;5.50;99.90
33067;DHT22;19428;49.024;8.366;2024-01-07T11:05:25;5.50;99.90
33067;DHT22;19428;49.024;8.366;2024-01-07T11:08:01;5.40;99.90
33067;DHT22;19428;49.024;8.366;2024-01-07T11:10:37;5.30;99.90
33067;DHT22;19428;49.024;8.366;2024-01-07T11:13:04;5.30;99.90
33067;DHT22;19428;49.024;8.366;2024-01-07T11:15:59;5.30;99.90
33067;DHT22;19428;49.024;8.366;2024-01-07T11:18:26;5.30;99.90
33067;DHT22;19428;49.024;8.366;2024-01-07T11:20:58;5.30;99.90
33067;DHT22;19428;49.024;8.366;2024-01-07T11:23:32;5.30;99.90
33067;DHT22;19428;49.024;8.366;2024-01-07T11:25:59;5.20;99.90
33067;DHT22;19428;49.024;8.366;2024-01-07T11:31:09;5.10;99.90
33067;DHT22;19428;49.024;8.366;2024-01-07T11:33:38;5.10;99.90
33067;DHT22;19428;49.024;8.366;2024-01-07T11:36:05;5.10;99.90
33067;DHT22;19428;49.024;8.366;2024-01-07T11:38:31;5.00;99.90
33067;DHT22;19428;49.024;8.366;2024-01-07T11:40:57;5.00;99.90
33067;DHT22;19428;49.024;8.366;2024-01-07T11:43:24;5.00;99.90
33067;DHT22;19428;49.024;8.366;2024-01-07T11:45:50;5.00;99.90
33067;DHT22;19428;49.024;8.366;2024-01-07T11:48:17;5.00;99.90
33067;DHT22;19428;49.024;8.366;2024-01-07T11:50:43;5.00;99.90
33067;DHT22;19428;49.024;8.366;2024-01-07T11:53:08;5.00;99.90
33067;DHT22;19428;49.024;8.366;2024-01-07T11:55:36;5.00;99.90
33067;DHT22;19428;49.024;8.366;2024-01-07T11:58:02;5.10;99.90
33067;DHT22;19428;49.024;8.366;2024-01-07T12:00:33;5.00;99.90
33067;DHT22;19428;49.024;8.366;2024-01-07T12:03:03;5.10;99.90
33067;DHT22;19428;49.024;8.366;2024-01-07T12:05:30;5.10;99.90
33067;DHT22;19428;49.024;8.366;2024-01-07T12:07:56;5.10;99.90
33067;DHT22;19428;49.024;8.366;2024-01-07T12:10:23;5.10;99.90
33067;DHT22;19428;49.024;8.366;2024-01-07T12:12:49;5.10;99.90
33067;DHT22;19428;49.024;8.366;2024-01-07T12:15:16;5.20;99.90
33067;DHT22;19428;49.024;8.366;2024-01-07T12:17:55;5.10;99.90
33067;DHT22;19428;49.024;8.366;2024-01-07T12:20:21;5.10;99.90
33067;DHT22;19428;49.024;8.366;2024-01-07T12:22:47;5.10;99.90
33067;DHT22;19428;49.024;8.366;2024-01-07T12:25:12;5.10;99.90
33067;DHT22;19428;49.024;8.366;2024-01-07T12:27:41;5.20;99.90
33067;DHT22;19428;49.024;8.366;2024-01-07T12:30:06;5.10;99.90
33067;DHT22;19428;49.024;8.366;2024-01-07T12:32:32;5.10;99.90
33067;DHT22;19428;49.024;8.366;2024-01-07T12:34:59;5.10;99.90
33067;DHT22;19428;49.024;8.366;2024-01-07T12:37:28;5.00;99.90
33067;DHT22;19428;49.024;8.366;2024-01-07T12:39:54;5.00;99.90
33067;DHT22;19428;49.024;8.366;2024-01-07T12:42:21;5.00;99.90
33067;DHT22;19428;49.024;8.366;2024-01-07T12:44:50;5.00;99.90
33067;DHT22;19428;49.024;8.366;2024-01-07T12:47:16;5.00;99.90
33067;DHT22;19428;49.024;8.366;2024-01-07T12:49:42;5.00;99.90
33067;DHT22;19428;49.024;8.366;2024-01-07T12:52:07;5.00;99.90
33067;DHT22;19428;49.024;8.366;2024-01-07T12:54:34;4.90;99.90
33067;DHT22;19428;49.024;8.366;2024-01-07T12:57:00;4.90;99.90
33067;DHT22;19428;49.024;8.366;2024-01-07T12:59:26;4.90;99.90
33067;DHT22;19428;49.024;8.366;2024-01-07T13:01:51;5.00;99.90
33067;DHT22;19428;49.024;8.366;2024-01-07T13:04:17;4.90;99.90
33067;DHT22;19428;49.024;8.366;2024-01-07T13:06:44;4.90;99.90
33067;DHT22;19428;49.024;8.366;2024-01-07T13:09:12;4.80;99.90
33067;DHT22;19428;49.024;8.366;2024-01-07T13:11:37;4.70;99.90
33067;DHT22;19428;49.024;8.366;2024-01-07T13:14:03;4.70;99.90
33067;DHT22;19428;49.024;8.366;2024-01-07T13:16:29;4.70;99.90
33067;DHT22;19428;49.024;8.366;2024-01-07T13:18:55;4.60;99.90
33067;DHT22;19428;49.024;8.366;2024-01-07T13:21:21;4.60;99.90
33067;DHT22;19428;49.024;8.366;2024-01-07T13:23:46;4.60;99.90
33067;DHT22;19428;49.024;8.366;2024-01-07T13:26:13;4.60;99.90
33067;DHT22;19428;49.024;8.366;2024-01-07T13:28:39;4.60;99.90
33067;DHT22;19428;49.024;8.366;2024-01-07T13:31:04;4.50;99.90
33067;DHT22;19428;49.024;8.366;2024-01-07T13:33:32;4.50;99.90
33067;DHT22;19428;49.024;8.366;2024-01-07T13:35:57;4.50;99.90
33067;DHT22;19428;49.024;8.366;2024-01-07T13:38:23;4.50;99.90
33067;DHT22;19428;49.024;8.366;2024-01-07T13:40:49;4.50;99.90
33067;DHT22;19428;49.024;8.366;2024-01-07T13:43:15;4.40;99.90
33067;DHT22;19428;49.024;8.366;2024-01-07T13:45:40;4.40;99.90
33067;DHT22;19428;49.024;8.366;2024-01-07T13:48:06;4.40;99.90
33067;DHT22;19428;49.024;8.366;2024-01-07T13:50:33;4.40;99.90
33067;DHT22;19428;49.024;8.366;2024-01-07T13:52:58;4.40;99.90
33067;DHT22;19428;49.024;8.366;2024-01-07T13:55:24;4.40;99.90
33067;DHT22;19428;49.024;8.366;2024-01-07T13:57:49;4.30;99.90
33067;DHT22;19428;49.024;8.366;2024-01-07T14:00:15;4.30;99.90
33067;DHT22;19428;49.024;8.366;2024-01-07T14:02:44;4.30;99.90
33067;DHT22;19428;49.024;8.366;2024-01-07T14:05:11;4.20;99.90
33067;DHT22;19428;49.024;8.366;2024-01-07T14:07:37;4.20;99.90
33067;DHT22;19428;49.024;8.366;2024-01-07T14:10:06;4.20;99.90
33067;DHT22;19428;49.024;8.366;2024-01-07T14:12:32;4.20;99.90
33067;DHT22;19428;49.024;8.366;2024-01-07T14:14:58;4.20;99.90
33067;DHT22;19428;49.024;8.366;2024-01-07T14:17:28;4.20;99.90
33067;DHT22;19428;49.024;8.366;2024-01-07T14:19:53;4.10;99.90
33067;DHT22;19428;49.024;8.366;2024-01-07T14:22:20;4.10;99.90
33067;DHT22;19428;49.024;8.366;2024-01-07T14:24:47;4.10;99.90
33067;DHT22;19428;49.024;8.366;2024-01-07T14:27:13;4.10;99.90
33067;DHT22;19428;49.024;8.366;2024-01-07T14:29:39;4.10;99.90
33067;DHT22;19428;49.024;8.366;2024-01-07T14:32:06;4.10;99.90
33067;DHT22;19428;49.024;8.366;2024-01-07T14:34:31;4.00;99.90
33067;DHT22;19428;49.024;8.366;2024-01-07T14:36:57;4.10;99.90
33067;DHT22;19428;49.024;8.366;2024-01-07T14:39:23;4.00;99.90
33067;DHT22;19428;49.024;8.366;2024-01-07T14:41:48;4.00;99.90
33067;DHT22;19428;49.024;8.366;2024-01-07T14:44:14;3.90;99.90
33067;DHT22;19428;49.024;8.366;2024-01-07T14:46:40;3.90;99.90
33067;DHT22;19428;49.024;8.366;2024-01-07T14:49:06;3.90;99.90
33067;DHT22;19428;49.024;8.366;2024-01-07T14:51:32;3.90;99.90
33067;DHT22;19428;49.024;8.366;2024-01-07T14:53:57;3.90;99.90
33067;DHT22;19428;49.024;8.366;2024-01-07T14:56:23;3.80;99.90
33067;DHT22;19428;49.024;8.366;2024-01-07T14:58:49;3.80;99.90
33067;DHT22;19428;49.024;8.366;2024-01-07T15:01:14;3.70;99.90
33067;DHT22;19428;49.024;8.366;2024-01-07T15:03:41;3.70;99.90
33067;DHT22;19428;49.024;8.366;2024-01-07T15:06:06;3.70;99.90
33067;DHT22;19428;49.024;8.366;2024-01-07T15:08:34;3.60;99.90
33067;DHT22;19428;49.024;8.366;2024-01-07T15:11:00;3.60;99.90
33067;DHT22;19428;49.024;8.366;2024-01-07T15:13:25;3.60;99.90
33067;DHT22;19428;49.024;8.366;2024-01-07T15:15:52;3.60;99.90
33067;DHT22;19428;49.024;8.366;2024-01-07T15:18:18;3.60;99.90
33067;DHT22;19428;49.024;8.366;2024-01-07T15:20:44;3.50;99.90
33067;DHT22;19428;49.024;8.366;2024-01-07T15:23:09;3.50;99.90
33067;DHT22;19428;49.024;8.366;2024-01-07T15:25:35;3.50;99.90
33067;DHT22;19428;49.024;8.366;2024-01-07T15:28:00;3.50;99.90
33067;DHT22;19428;49.024;8.366;2024-01-07T15:30:26;3.50;99.90
33067;DHT22;19428;49.024;8.366;2024-01-07T15:32:53;3.40;99.90
33067;DHT22;19428;49.024;8.366;2024-01-07T15:35:19;3.40;99.90
33067;DHT22;19428;49.024;8.366;2024-01-07T15:37:44;3.40;99.90
33067;DHT22;19428;49.024;8.366;2024-01-07T15:40:10;3.40;99.90
33067;DHT22;19428;49.024;8.366;2024-01-07T15:42:38;3.40;99.90
33067;DHT22;19428;49.024;8.366;2024-01-07T15:45:03;3.40;99.90
33067;DHT22;19428;49.024;8.366;2024-01-07T15:47:29;3.30;99.90
33067;DHT22;19428;49.024;8.366;2024-01-07T15:49:58;3.30;99.90
33067;DHT22;19428;49.024;8.366;2024-01-07T15:52:24;3.30;99.90
33067;DHT22;19428;49.024;8.366;2024-01-07T15:54:49;3.30;99.90
33067;DHT22;19428;49.024;8.366;2024-01-07T15:57:15;3.20;99.90
33067;DHT22;19428;49.024;8.366;2024-01-07T15:59:42;3.20;99.90
33067;DHT22;19428;49.024;8.366;2024-01-07T16:02:08;3.20;99.90
33067;DHT22;19428;49.024;8.366;2024-01-07T16:04:33;3.20;99.90
33067;DHT22;19428;49.024;8.366;2024-01-07T16:06:59;3.20;99.90
33067;DHT22;19428;49.024;8.366;2024-01-07T16:09:24;3.20;99.90
33067;DHT22;19428;49.024;8.366;2024-01-07T16:11:50;3.20;99.90
33067;DHT22;19428;49.024;8.366;2024-01-07T16:14:17;3.20;99.90
33067;DHT22;19428;49.024;8.366;2024-01-07T16:16:52;3.10;99.90
33067;DHT22;19428;49.024;8.366;2024-01-07T16:19:18;3.10;99.90
33067;DHT22;19428;49.024;8.366;2024-01-07T16:21:43;3.10;99.90
33067;DHT22;19428;49.024;8.366;2024-01-07T16:24:09;3.00;99.90
33067;DHT22;19428;49.024;8.366;2024-01-07T16:26:34;3.10;99.90
33067;DHT22;19428;49.024;8.366;2024-01-07T16:29:00;3.00;99.90
33067;DHT22;19428;49.024;8.366;2024-01-07T16:31:26;3.00;99.90
33067;DHT22;19428;49.024;8.366;2024-01-07T16:33:51;3.00;99.90
33067;DHT22;19428;49.024;8.366;2024-01-07T16:36:17;3.00;99.90
33067;DHT22;19428;49.024;8.366;2024-01-07T16:38:42;3.00;99.90
33067;DHT22;19428;49.024;8.366;2024-01-07T16:41:08;3.00;99.90
33067;DHT22;19428;49.024;8.366;2024-01-07T16:43:35;3.00;99.90
33067;DHT22;19428;49.024;8.366;2024-01-07T16:46:02;3.00;99.90
33067;DHT22;19428;49.024;8.366;2024-01-07T16:48:28;2.90;99.90
33067;DHT22;19428;49.024;8.366;2024-01-07T16:50:53;2.90;99.90
33067;DHT22;19428;49.024;8.366;2024-01-07T16:53:19;2.80;99.90
33067;DHT22;19428;49.024;8.366;2024-01-07T16:55:46;2.80;99.90
33067;DHT22;19428;49.024;8.366;2024-01-07T16:58:12;2.70;99.90
33067;DHT22;19428;49.024;8.366;2024-01-07T17:00:37;2.60;99.90
33067;DHT22;19428;49.024;8.366;2024-01-07T17:03:03;2.50;99.90
33067;DHT22;19428;49.024;8.366;2024-01-07T17:05:29;2.40;99.90
33067;DHT22;19428;49.024;8.366;2024-01-07T17:07:54;2.30;99.90
33067;DHT22;19428;49.024;8.366;2024-01-07T17:10:20;2.20;99.90